Burton upon Trent, United Kingdom
Current Conditions -  °F | °C
As of 11:50 PM on Thursday 18 Dec 2014 (Local Time) from EGNX Reporting Station
Moderate Rain Moderate Rain  
Wind Chill: 54°   Ceiling: 2000
Heat Index: 54°   Visibility: 5mi
Dew Point: 50°   Wind: 23mph
Humidity: 88%   Direction: 220°SW
Pressure: 29.65"   Gusts: NA
Location:  52.81°N, 1.64°W
Report Text: EGNX 182350Z 22020KT 8000 RA FEW016 BKN020 12/10 Q1004
Loading
Personal Weather Stations






























Interactive Weather Map New forecast layout! Learn more

10-Day Weather Forecast

Advertisements
Track Severe Weather on mobile